sensor_id;sensor_type;location;lat;lon;timestamp;P1;durP1;ratioP1;P2;durP2;ratioP2
62861;SDS011;48953;53.110;5.592;2022-12-18T00:00:46;67.97;;;24.92;;
62861;SDS011;48953;53.110;5.592;2022-12-18T00:03:12;71.95;;;23.35;;
62861;SDS011;48953;53.110;5.592;2022-12-18T00:05:48;67.13;;;23.40;;
62861;SDS011;48953;53.110;5.592;2022-12-18T00:08:14;64.63;;;22.75;;
62861;SDS011;48953;53.110;5.592;2022-12-18T00:10:41;66.18;;;24.15;;
62861;SDS011;48953;53.110;5.592;2022-12-18T00:13:07;72.20;;;27.17;;
62861;SDS011;48953;53.110;5.592;2022-12-18T00:15:36;74.13;;;26.27;;
62861;SDS011;48953;53.110;5.592;2022-12-18T00:18:02;73.63;;;24.65;;
62861;SDS011;48953;53.110;5.592;2022-12-18T00:20:28;71.70;;;24.35;;
62861;SDS011;48953;53.110;5.592;2022-12-18T00:22:54;68.85;;;24.40;;
62861;SDS011;48953;53.110;5.592;2022-12-18T00:25:21;76.30;;;25.55;;
62861;SDS011;48953;53.110;5.592;2022-12-18T00:27:47;75.20;;;26.10;;
62861;SDS011;48953;53.110;5.592;2022-12-18T00:30:13;82.40;;;25.98;;
62861;SDS011;48953;53.110;5.592;2022-12-18T00:32:39;60.72;;;23.13;;
62861;SDS011;48953;53.110;5.592;2022-12-18T00:35:06;69.70;;;24.35;;
62861;SDS011;48953;53.110;5.592;2022-12-18T00:37:35;72.47;;;25.73;;
62861;SDS011;48953;53.110;5.592;2022-12-18T00:40:01;76.38;;;25.80;;
62861;SDS011;48953;53.110;5.592;2022-12-18T00:42:27;69.63;;;25.10;;
62861;SDS011;48953;53.110;5.592;2022-12-18T00:45:12;62.80;;;22.27;;
62861;SDS011;48953;53.110;5.592;2022-12-18T00:47:38;67.60;;;25.40;;
62861;SDS011;48953;53.110;5.592;2022-12-18T00:50:04;78.05;;;25.52;;
62861;SDS011;48953;53.110;5.592;2022-12-18T00:52:30;69.65;;;25.23;;
62861;SDS011;48953;53.110;5.592;2022-12-18T00:54:56;73.32;;;26.08;;
62861;SDS011;48953;53.110;5.592;2022-12-18T00:57:22;68.05;;;24.92;;
62861;SDS011;48953;53.110;5.592;2022-12-18T00:59:48;70.20;;;24.42;;
62861;SDS011;48953;53.110;5.592;2022-12-18T01:02:14;76.93;;;24.65;;
62861;SDS011;48953;53.110;5.592;2022-12-18T01:04:40;66.65;;;23.90;;
62861;SDS011;48953;53.110;5.592;2022-12-18T01:07:06;52.42;;;20.15;;
62861;SDS011;48953;53.110;5.592;2022-12-18T01:09:32;78.00;;;25.25;;
62861;SDS011;48953;53.110;5.592;2022-12-18T01:11:59;68.05;;;24.58;;
62861;SDS011;48953;53.110;5.592;2022-12-18T01:14:25;67.47;;;23.65;;
62861;SDS011;48953;53.110;5.592;2022-12-18T01:16:51;58.17;;;20.75;;
62861;SDS011;48953;53.110;5.592;2022-12-18T01:19:17;69.82;;;24.15;;
62861;SDS011;48953;53.110;5.592;2022-12-18T01:21:43;67.65;;;23.45;;
62861;SDS011;48953;53.110;5.592;2022-12-18T01:24:09;66.72;;;24.17;;
62861;SDS011;48953;53.110;5.592;2022-12-18T01:26:37;65.95;;;22.70;;
62861;SDS011;48953;53.110;5.592;2022-12-18T01:29:03;53.47;;;19.05;;
62861;SDS011;48953;53.110;5.592;2022-12-18T01:31:31;60.15;;;22.83;;
62861;SDS011;48953;53.110;5.592;2022-12-18T01:33:57;63.05;;;21.98;;
62861;SDS011;48953;53.110;5.592;2022-12-18T01:36:29;56.60;;;20.98;;
62861;SDS011;48953;53.110;5.592;2022-12-18T01:38:56;61.25;;;21.00;;
62861;SDS011;48953;53.110;5.592;2022-12-18T01:41:26;65.88;;;24.33;;
62861;SDS011;48953;53.110;5.592;2022-12-18T01:46:57;69.50;;;21.83;;
62861;SDS011;48953;53.110;5.592;2022-12-18T01:49:23;63.72;;;21.33;;
62861;SDS011;48953;53.110;5.592;2022-12-18T01:51:49;64.05;;;21.70;;
62861;SDS011;48953;53.110;5.592;2022-12-18T01:54:15;65.22;;;22.35;;
62861;SDS011;48953;53.110;5.592;2022-12-18T01:56:41;65.15;;;22.48;;
62861;SDS011;48953;53.110;5.592;2022-12-18T01:59:07;62.00;;;22.88;;
62861;SDS011;48953;53.110;5.592;2022-12-18T02:01:35;56.92;;;21.05;;
62861;SDS011;48953;53.110;5.592;2022-12-18T02:06:47;58.25;;;19.20;;
62861;SDS011;48953;53.110;5.592;2022-12-18T02:09:17;59.85;;;19.85;;
62861;SDS011;48953;53.110;5.592;2022-12-18T02:11:50;56.60;;;19.77;;
62861;SDS011;48953;53.110;5.592;2022-12-18T02:14:38;54.78;;;20.30;;
62861;SDS011;48953;53.110;5.592;2022-12-18T02:17:17;50.72;;;18.83;;
62861;SDS011;48953;53.110;5.592;2022-12-18T02:22:37;61.63;;;21.23;;
62861;SDS011;48953;53.110;5.592;2022-12-18T02:27:52;50.83;;;20.13;;
62861;SDS011;48953;53.110;5.592;2022-12-18T02:30:18;56.35;;;20.30;;
62861;SDS011;48953;53.110;5.592;2022-12-18T02:32:46;57.38;;;21.33;;
62861;SDS011;48953;53.110;5.592;2022-12-18T02:35:15;54.35;;;19.88;;
62861;SDS011;48953;53.110;5.592;2022-12-18T02:37:42;51.38;;;18.63;;
62861;SDS011;48953;53.110;5.592;2022-12-18T02:40:09;54.00;;;20.05;;
62861;SDS011;48953;53.110;5.592;2022-12-18T02:42:36;54.35;;;19.38;;
62861;SDS011;48953;53.110;5.592;2022-12-18T02:45:02;55.97;;;21.73;;
62861;SDS011;48953;53.110;5.592;2022-12-18T02:47:29;58.28;;;21.05;;
62861;SDS011;48953;53.110;5.592;2022-12-18T02:58:03;51.38;;;19.95;;
62861;SDS011;48953;53.110;5.592;2022-12-18T03:03:13;56.42;;;19.80;;
62861;SDS011;48953;53.110;5.592;2022-12-18T03:05:45;54.83;;;19.75;;
62861;SDS011;48953;53.110;5.592;2022-12-18T03:08:23;62.58;;;21.98;;
62861;SDS011;48953;53.110;5.592;2022-12-18T03:10:55;50.70;;;18.58;;
62861;SDS011;48953;53.110;5.592;2022-12-18T03:13:24;59.97;;;20.10;;
62861;SDS011;48953;53.110;5.592;2022-12-18T03:15:55;51.38;;;18.67;;
62861;SDS011;48953;53.110;5.592;2022-12-18T03:18:27;44.67;;;17.85;;
62861;SDS011;48953;53.110;5.592;2022-12-18T03:20:56;62.08;;;20.52;;
62861;SDS011;48953;53.110;5.592;2022-12-18T03:23:25;52.95;;;18.75;;
62861;SDS011;48953;53.110;5.592;2022-12-18T03:25:52;58.42;;;20.98;;
62861;SDS011;48953;53.110;5.592;2022-12-18T03:28:20;59.13;;;19.55;;
62861;SDS011;48953;53.110;5.592;2022-12-18T03:30:47;57.58;;;19.67;;
62861;SDS011;48953;53.110;5.592;2022-12-18T03:33:21;65.57;;;20.27;;
62861;SDS011;48953;53.110;5.592;2022-12-18T03:35:49;67.43;;;20.55;;
62861;SDS011;48953;53.110;5.592;2022-12-18T03:38:16;58.65;;;19.77;;
62861;SDS011;48953;53.110;5.592;2022-12-18T03:43:16;61.85;;;19.85;;
62861;SDS011;48953;53.110;5.592;2022-12-18T03:45:48;54.40;;;17.58;;
62861;SDS011;48953;53.110;5.592;2022-12-18T03:48:23;57.28;;;19.60;;
62861;SDS011;48953;53.110;5.592;2022-12-18T03:50:57;56.10;;;18.95;;
62861;SDS011;48953;53.110;5.592;2022-12-18T03:55:54;54.70;;;18.80;;
62861;SDS011;48953;53.110;5.592;2022-12-18T03:58:23;59.08;;;19.40;;
62861;SDS011;48953;53.110;5.592;2022-12-18T04:00:49;62.60;;;19.23;;
62861;SDS011;48953;53.110;5.592;2022-12-18T04:03:16;62.22;;;20.50;;
62861;SDS011;48953;53.110;5.592;2022-12-18T04:05:44;57.75;;;19.13;;
62861;SDS011;48953;53.110;5.592;2022-12-18T04:08:10;57.42;;;19.02;;
62861;SDS011;48953;53.110;5.592;2022-12-18T04:10:36;63.60;;;20.00;;
62861;SDS011;48953;53.110;5.592;2022-12-18T04:13:02;58.97;;;20.90;;
62861;SDS011;48953;53.110;5.592;2022-12-18T04:15:29;54.10;;;18.25;;
62861;SDS011;48953;53.110;5.592;2022-12-18T04:17:55;63.88;;;19.33;;
62861;SDS011;48953;53.110;5.592;2022-12-18T04:20:21;62.55;;;20.77;;
62861;SDS011;48953;53.110;5.592;2022-12-18T04:22:47;60.75;;;20.20;;
62861;SDS011;48953;53.110;5.592;2022-12-18T04:25:13;52.90;;;19.65;;
62861;SDS011;48953;53.110;5.592;2022-12-18T04:27:39;59.33;;;17.77;;
62861;SDS011;48953;53.110;5.592;2022-12-18T04:30:05;66.45;;;21.77;;
62861;SDS011;48953;53.110;5.592;2022-12-18T04:32:32;59.25;;;20.70;;
62861;SDS011;48953;53.110;5.592;2022-12-18T04:34:58;64.15;;;20.10;;
62861;SDS011;48953;53.110;5.592;2022-12-18T04:37:24;59.50;;;19.63;;
62861;SDS011;48953;53.110;5.592;2022-12-18T04:39:50;55.10;;;19.27;;
62861;SDS011;48953;53.110;5.592;2022-12-18T04:42:16;60.85;;;20.05;;
62861;SDS011;48953;53.110;5.592;2022-12-18T04:44:42;58.88;;;19.67;;
62861;SDS011;48953;53.110;5.592;2022-12-18T04:47:08;59.65;;;19.60;;
62861;SDS011;48953;53.110;5.592;2022-12-18T04:49:34;63.00;;;21.33;;
62861;SDS011;48953;53.110;5.592;2022-12-18T04:52:00;59.13;;;19.75;;
62861;SDS011;48953;53.110;5.592;2022-12-18T04:54:26;56.67;;;19.55;;
62861;SDS011;48953;53.110;5.592;2022-12-18T04:56:52;55.28;;;19.70;;
62861;SDS011;48953;53.110;5.592;2022-12-18T04:59:18;55.38;;;18.90;;
62861;SDS011;48953;53.110;5.592;2022-12-18T05:01:44;50.67;;;19.55;;
62861;SDS011;48953;53.110;5.592;2022-12-18T05:04:10;54.95;;;19.55;;
62861;SDS011;48953;53.110;5.592;2022-12-18T05:06:36;62.35;;;21.73;;
62861;SDS011;48953;53.110;5.592;2022-12-18T05:09:02;60.65;;;20.00;;
62861;SDS011;48953;53.110;5.592;2022-12-18T05:11:28;52.38;;;18.52;;
62861;SDS011;48953;53.110;5.592;2022-12-18T05:13:54;55.28;;;19.92;;
62861;SDS011;48953;53.110;5.592;2022-12-18T05:16:20;57.30;;;18.92;;
62861;SDS011;48953;53.110;5.592;2022-12-18T05:18:46;60.47;;;20.40;;
62861;SDS011;48953;53.110;5.592;2022-12-18T05:21:12;54.15;;;18.85;;
62861;SDS011;48953;53.110;5.592;2022-12-18T05:23:38;48.83;;;18.70;;
62861;SDS011;48953;53.110;5.592;2022-12-18T05:26:05;54.40;;;19.05;;
62861;SDS011;48953;53.110;5.592;2022-12-18T05:28:32;47.80;;;18.90;;
62861;SDS011;48953;53.110;5.592;2022-12-18T05:30:59;59.20;;;19.40;;
62861;SDS011;48953;53.110;5.592;2022-12-18T05:33:26;55.30;;;19.67;;
62861;SDS011;48953;53.110;5.592;2022-12-18T05:35:53;62.08;;;19.15;;
62861;SDS011;48953;53.110;5.592;2022-12-18T05:38:20;57.85;;;20.55;;
62861;SDS011;48953;53.110;5.592;2022-12-18T05:40:47;54.33;;;20.42;;
62861;SDS011;48953;53.110;5.592;2022-12-18T05:43:13;56.65;;;19.70;;
62861;SDS011;48953;53.110;5.592;2022-12-18T05:45:39;53.67;;;19.50;;
62861;SDS011;48953;53.110;5.592;2022-12-18T05:48:05;49.40;;;18.13;;
62861;SDS011;48953;53.110;5.592;2022-12-18T05:50:38;58.33;;;19.90;;
62861;SDS011;48953;53.110;5.592;2022-12-18T05:53:05;48.80;;;19.90;;
62861;SDS011;48953;53.110;5.592;2022-12-18T05:55:37;56.03;;;19.77;;
62861;SDS011;48953;53.110;5.592;2022-12-18T05:58:04;58.80;;;20.05;;
62861;SDS011;48953;53.110;5.592;2022-12-18T06:00:31;50.00;;;18.65;;
62861;SDS011;48953;53.110;5.592;2022-12-18T06:02:58;54.45;;;17.98;;
62861;SDS011;48953;53.110;5.592;2022-12-18T06:05:24;50.65;;;17.92;;
62861;SDS011;48953;53.110;5.592;2022-12-18T06:07:50;44.92;;;18.67;;
62861;SDS011;48953;53.110;5.592;2022-12-18T06:10:16;51.00;;;17.48;;
62861;SDS011;48953;53.110;5.592;2022-12-18T06:12:43;49.38;;;18.65;;
62861;SDS011;48953;53.110;5.592;2022-12-18T06:15:09;52.10;;;19.63;;
62861;SDS011;48953;53.110;5.592;2022-12-18T06:17:35;49.30;;;18.52;;
62861;SDS011;48953;53.110;5.592;2022-12-18T06:20:01;53.50;;;19.73;;
62861;SDS011;48953;53.110;5.592;2022-12-18T06:22:27;53.05;;;19.88;;
62861;SDS011;48953;53.110;5.592;2022-12-18T06:24:53;45.15;;;16.98;;
62861;SDS011;48953;53.110;5.592;2022-12-18T06:27:19;46.65;;;17.60;;
62861;SDS011;48953;53.110;5.592;2022-12-18T06:29:45;52.38;;;18.63;;
62861;SDS011;48953;53.110;5.592;2022-12-18T06:32:11;50.70;;;19.52;;
62861;SDS011;48953;53.110;5.592;2022-12-18T06:34:37;46.55;;;18.02;;
62861;SDS011;48953;53.110;5.592;2022-12-18T06:37:03;48.33;;;17.65;;
62861;SDS011;48953;53.110;5.592;2022-12-18T06:39:29;52.35;;;18.10;;
62861;SDS011;48953;53.110;5.592;2022-12-18T06:41:55;51.45;;;17.63;;
62861;SDS011;48953;53.110;5.592;2022-12-18T06:44:21;50.58;;;19.00;;
62861;SDS011;48953;53.110;5.592;2022-12-18T06:46:47;52.83;;;17.50;;
62861;SDS011;48953;53.110;5.592;2022-12-18T06:49:13;46.75;;;17.90;;
62861;SDS011;48953;53.110;5.592;2022-12-18T06:51:41;56.65;;;18.77;;
62861;SDS011;48953;53.110;5.592;2022-12-18T06:54:07;45.65;;;15.73;;
62861;SDS011;48953;53.110;5.592;2022-12-18T06:56:33;41.65;;;14.32;;
62861;SDS011;48953;53.110;5.592;2022-12-18T06:58:59;48.00;;;16.63;;
62861;SDS011;48953;53.110;5.592;2022-12-18T07:01:25;50.03;;;18.20;;
62861;SDS011;48953;53.110;5.592;2022-12-18T07:03:55;57.85;;;19.38;;
62861;SDS011;48953;53.110;5.592;2022-12-18T07:06:22;41.60;;;17.20;;
62861;SDS011;48953;53.110;5.592;2022-12-18T07:08:48;52.65;;;16.33;;
62861;SDS011;48953;53.110;5.592;2022-12-18T07:11:14;40.85;;;13.95;;
62861;SDS011;48953;53.110;5.592;2022-12-18T07:13:41;46.08;;;17.30;;
62861;SDS011;48953;53.110;5.592;2022-12-18T07:16:08;44.10;;;15.00;;
62861;SDS011;48953;53.110;5.592;2022-12-18T07:18:34;40.70;;;17.52;;
62861;SDS011;48953;53.110;5.592;2022-12-18T07:21:04;51.38;;;17.88;;
62861;SDS011;48953;53.110;5.592;2022-12-18T07:23:31;43.88;;;16.55;;
62861;SDS011;48953;53.110;5.592;2022-12-18T07:26:00;40.45;;;15.63;;
62861;SDS011;48953;53.110;5.592;2022-12-18T07:28:27;41.67;;;14.70;;
62861;SDS011;48953;53.110;5.592;2022-12-18T07:30:53;41.75;;;16.80;;
62861;SDS011;48953;53.110;5.592;2022-12-18T07:33:18;40.67;;;15.27;;
62861;SDS011;48953;53.110;5.592;2022-12-18T07:35:44;40.00;;;16.27;;
62861;SDS011;48953;53.110;5.592;2022-12-18T07:38:10;45.38;;;17.83;;
62861;SDS011;48953;53.110;5.592;2022-12-18T07:40:36;38.47;;;15.38;;
62861;SDS011;48953;53.110;5.592;2022-12-18T07:43:02;40.20;;;15.95;;
62861;SDS011;48953;53.110;5.592;2022-12-18T07:45:28;40.33;;;16.20;;
62861;SDS011;48953;53.110;5.592;2022-12-18T07:47:54;43.70;;;16.52;;
62861;SDS011;48953;53.110;5.592;2022-12-18T07:50:20;40.30;;;15.38;;
62861;SDS011;48953;53.110;5.592;2022-12-18T07:52:46;35.17;;;13.80;;
62861;SDS011;48953;53.110;5.592;2022-12-18T07:55:12;41.00;;;15.93;;
62861;SDS011;48953;53.110;5.592;2022-12-18T07:57:38;42.47;;;16.40;;
62861;SDS011;48953;53.110;5.592;2022-12-18T08:00:05;40.20;;;15.48;;
62861;SDS011;48953;53.110;5.592;2022-12-18T08:02:31;29.73;;;12.82;;
62861;SDS011;48953;53.110;5.592;2022-12-18T08:04:57;38.78;;;15.77;;
62861;SDS011;48953;53.110;5.592;2022-12-18T08:07:24;38.85;;;15.10;;
62861;SDS011;48953;53.110;5.592;2022-12-18T08:09:51;39.45;;;15.48;;
62861;SDS011;48953;53.110;5.592;2022-12-18T08:12:17;35.38;;;13.88;;
62861;SDS011;48953;53.110;5.592;2022-12-18T08:14:43;39.10;;;16.02;;
62861;SDS011;48953;53.110;5.592;2022-12-18T08:17:09;41.40;;;15.02;;
62861;SDS011;48953;53.110;5.592;2022-12-18T08:19:35;25.30;;;10.23;;
62861;SDS011;48953;53.110;5.592;2022-12-18T08:22:01;36.45;;;15.57;;
62861;SDS011;48953;53.110;5.592;2022-12-18T08:24:27;37.28;;;16.02;;
62861;SDS011;48953;53.110;5.592;2022-12-18T08:26:53;33.33;;;14.63;;
62861;SDS011;48953;53.110;5.592;2022-12-18T08:29:19;36.33;;;15.13;;
62861;SDS011;48953;53.110;5.592;2022-12-18T08:31:45;34.10;;;15.25;;
62861;SDS011;48953;53.110;5.592;2022-12-18T08:34:11;31.45;;;13.32;;
62861;SDS011;48953;53.110;5.592;2022-12-18T08:36:37;33.90;;;15.35;;
62861;SDS011;48953;53.110;5.592;2022-12-18T08:39:03;28.73;;;13.40;;
62861;SDS011;48953;53.110;5.592;2022-12-18T08:41:29;33.10;;;14.52;;
62861;SDS011;48953;53.110;5.592;2022-12-18T08:43:55;26.75;;;12.35;;
62861;SDS011;48953;53.110;5.592;2022-12-18T08:46:41;37.58;;;15.02;;
62861;SDS011;48953;53.110;5.592;2022-12-18T08:49:08;38.25;;;15.40;;
62861;SDS011;48953;53.110;5.592;2022-12-18T08:51:35;31.05;;;13.20;;
62861;SDS011;48953;53.110;5.592;2022-12-18T08:54:01;36.70;;;14.73;;
62861;SDS011;48953;53.110;5.592;2022-12-18T08:56:27;36.30;;;14.27;;
62861;SDS011;48953;53.110;5.592;2022-12-18T08:58:54;33.60;;;14.82;;
62861;SDS011;48953;53.110;5.592;2022-12-18T09:01:20;37.15;;;15.55;;
62861;SDS011;48953;53.110;5.592;2022-12-18T09:03:47;34.30;;;14.02;;
62861;SDS011;48953;53.110;5.592;2022-12-18T09:06:14;30.35;;;13.82;;
62861;SDS011;48953;53.110;5.592;2022-12-18T09:08:41;35.13;;;15.18;;
62861;SDS011;48953;53.110;5.592;2022-12-18T09:11:14;26.40;;;12.88;;
62861;SDS011;48953;53.110;5.592;2022-12-18T09:13:40;30.35;;;13.55;;
62861;SDS011;48953;53.110;5.592;2022-12-18T09:16:06;32.22;;;14.98;;
62861;SDS011;48953;53.110;5.592;2022-12-18T09:18:32;28.73;;;13.18;;
62861;SDS011;48953;53.110;5.592;2022-12-18T09:20:58;32.40;;;14.82;;
62861;SDS011;48953;53.110;5.592;2022-12-18T09:23:24;30.08;;;14.40;;
62861;SDS011;48953;53.110;5.592;2022-12-18T09:25:50;30.33;;;15.15;;
62861;SDS011;48953;53.110;5.592;2022-12-18T09:28:17;28.52;;;12.77;;
62861;SDS011;48953;53.110;5.592;2022-12-18T09:30:45;35.20;;;14.95;;
62861;SDS011;48953;53.110;5.592;2022-12-18T09:33:12;30.42;;;14.32;;
62861;SDS011;48953;53.110;5.592;2022-12-18T09:35:38;31.33;;;14.65;;
62861;SDS011;48953;53.110;5.592;2022-12-18T09:38:05;25.13;;;11.98;;
62861;SDS011;48953;53.110;5.592;2022-12-18T09:40:35;27.08;;;12.98;;
62861;SDS011;48953;53.110;5.592;2022-12-18T09:43:03;28.45;;;13.93;;
62861;SDS011;48953;53.110;5.592;2022-12-18T09:45:40;25.83;;;12.32;;
62861;SDS011;48953;53.110;5.592;2022-12-18T09:48:15;28.23;;;11.55;;
62861;SDS011;48953;53.110;5.592;2022-12-18T09:50:42;21.45;;;10.70;;
62861;SDS011;48953;53.110;5.592;2022-12-18T09:53:15;29.25;;;12.00;;
62861;SDS011;48953;53.110;5.592;2022-12-18T09:55:44;22.67;;;10.43;;
62861;SDS011;48953;53.110;5.592;2022-12-18T09:58:19;23.02;;;10.98;;
62861;SDS011;48953;53.110;5.592;2022-12-18T10:00:46;26.33;;;12.50;;
62861;SDS011;48953;53.110;5.592;2022-12-18T10:03:13;28.05;;;11.98;;
62861;SDS011;48953;53.110;5.592;2022-12-18T10:08:33;24.63;;;11.90;;
62861;SDS011;48953;53.110;5.592;2022-12-18T10:10:57;20.08;;;10.48;;
62861;SDS011;48953;53.110;5.592;2022-12-18T10:21:07;25.65;;;12.15;;
62861;SDS011;48953;53.110;5.592;2022-12-18T10:26:05;25.10;;;11.35;;
62861;SDS011;48953;53.110;5.592;2022-12-18T10:28:32;22.98;;;11.40;;
62861;SDS011;48953;53.110;5.592;2022-12-18T10:30:59;21.77;;;10.82;;
62861;SDS011;48953;53.110;5.592;2022-12-18T10:33:28;20.33;;;9.85;;
62861;SDS011;48953;53.110;5.592;2022-12-18T10:35:54;16.40;;;9.73;;
62861;SDS011;48953;53.110;5.592;2022-12-18T10:38:30;24.75;;;10.68;;
62861;SDS011;48953;53.110;5.592;2022-12-18T10:41:03;23.10;;;11.40;;
62861;SDS011;48953;53.110;5.592;2022-12-18T10:43:34;20.33;;;10.25;;
62861;SDS011;48953;53.110;5.592;2022-12-18T10:48:36;20.73;;;10.38;;
62861;SDS011;48953;53.110;5.592;2022-12-18T10:51:05;17.67;;;8.30;;
62861;SDS011;48953;53.110;5.592;2022-12-18T10:53:33;21.80;;;10.25;;
62861;SDS011;48953;53.110;5.592;2022-12-18T10:55:59;18.05;;;9.50;;
62861;SDS011;48953;53.110;5.592;2022-12-18T10:58:30;16.67;;;8.10;;
62861;SDS011;48953;53.110;5.592;2022-12-18T11:01:16;22.27;;;9.48;;
62861;SDS011;48953;53.110;5.592;2022-12-18T11:03:43;18.75;;;8.75;;
62861;SDS011;48953;53.110;5.592;2022-12-18T11:06:13;24.48;;;10.95;;
62861;SDS011;48953;53.110;5.592;2022-12-18T11:08:40;19.05;;;9.60;;
62861;SDS011;48953;53.110;5.592;2022-12-18T11:11:20;19.40;;;9.77;;
62861;SDS011;48953;53.110;5.592;2022-12-18T11:16:28;15.45;;;8.32;;
62861;SDS011;48953;53.110;5.592;2022-12-18T11:18:55;17.10;;;7.30;;
62861;SDS011;48953;53.110;5.592;2022-12-18T11:21:38;15.00;;;8.07;;
62861;SDS011;48953;53.110;5.592;2022-12-18T11:24:07;23.05;;;8.77;;
62861;SDS011;48953;53.110;5.592;2022-12-18T11:26:40;10.13;;;5.90;;
62861;SDS011;48953;53.110;5.592;2022-12-18T11:29:09;14.30;;;7.57;;
62861;SDS011;48953;53.110;5.592;2022-12-18T11:31:35;13.00;;;7.05;;
62861;SDS011;48953;53.110;5.592;2022-12-18T11:34:09;12.25;;;7.30;;
62861;SDS011;48953;53.110;5.592;2022-12-18T11:36:44;15.77;;;8.48;;
62861;SDS011;48953;53.110;5.592;2022-12-18T11:42:05;15.15;;;7.65;;
62861;SDS011;48953;53.110;5.592;2022-12-18T11:44:38;16.33;;;7.82;;
62861;SDS011;48953;53.110;5.592;2022-12-18T11:49:50;14.65;;;6.32;;
62861;SDS011;48953;53.110;5.592;2022-12-18T11:54:45;10.73;;;6.70;;
62861;SDS011;48953;53.110;5.592;2022-12-18T11:59:58;16.15;;;8.48;;
62861;SDS011;48953;53.110;5.592;2022-12-18T12:20:42;13.93;;;7.70;;
62861;SDS011;48953;53.110;5.592;2022-12-18T12:25:46;12.60;;;6.88;;
62861;SDS011;48953;53.110;5.592;2022-12-18T12:31:07;14.40;;;7.05;;
62861;SDS011;48953;53.110;5.592;2022-12-18T12:33:47;12.07;;;6.97;;
62861;SDS011;48953;53.110;5.592;2022-12-18T12:38:43;13.30;;;7.40;;
62861;SDS011;48953;53.110;5.592;2022-12-18T12:41:12;9.85;;;6.55;;
62861;SDS011;48953;53.110;5.592;2022-12-18T12:44:00;15.40;;;7.70;;
62861;SDS011;48953;53.110;5.592;2022-12-18T12:46:27;12.73;;;7.07;;
62861;SDS011;48953;53.110;5.592;2022-12-18T12:48:56;16.08;;;8.05;;
62861;SDS011;48953;53.110;5.592;2022-12-18T12:51:25;13.85;;;8.18;;
62861;SDS011;48953;53.110;5.592;2022-12-18T12:53:52;13.68;;;6.75;;
62861;SDS011;48953;53.110;5.592;2022-12-18T12:56:19;14.23;;;7.75;;
62861;SDS011;48953;53.110;5.592;2022-12-18T12:58:55;15.68;;;7.38;;
62861;SDS011;48953;53.110;5.592;2022-12-18T13:01:29;12.95;;;7.15;;
62861;SDS011;48953;53.110;5.592;2022-12-18T13:06:43;14.75;;;8.25;;
62861;SDS011;48953;53.110;5.592;2022-12-18T13:09:11;13.88;;;7.28;;
62861;SDS011;48953;53.110;5.592;2022-12-18T13:11:39;14.10;;;6.45;;
62861;SDS011;48953;53.110;5.592;2022-12-18T13:14:31;13.10;;;6.50;;
62861;SDS011;48953;53.110;5.592;2022-12-18T13:17:16;11.40;;;6.45;;
62861;SDS011;48953;53.110;5.592;2022-12-18T13:19:43;11.85;;;7.07;;
62861;SDS011;48953;53.110;5.592;2022-12-18T13:22:28;11.82;;;6.35;;
62861;SDS011;48953;53.110;5.592;2022-12-18T13:24:54;12.85;;;6.80;;
62861;SDS011;48953;53.110;5.592;2022-12-18T13:30:51;12.85;;;7.15;;
62861;SDS011;48953;53.110;5.592;2022-12-18T13:33:19;11.75;;;6.93;;
62861;SDS011;48953;53.110;5.592;2022-12-18T13:35:38;12.90;;;6.72;;
62861;SDS011;48953;53.110;5.592;2022-12-18T13:38:19;12.65;;;7.07;;
62861;SDS011;48953;53.110;5.592;2022-12-18T13:48:32;10.90;;;6.60;;
62861;SDS011;48953;53.110;5.592;2022-12-18T13:51:00;9.30;;;6.70;;
62861;SDS011;48953;53.110;5.592;2022-12-18T13:53:28;13.98;;;6.93;;
62861;SDS011;48953;53.110;5.592;2022-12-18T13:55:55;11.75;;;6.75;;
62861;SDS011;48953;53.110;5.592;2022-12-18T13:58:21;11.52;;;5.85;;
62861;SDS011;48953;53.110;5.592;2022-12-18T14:00:47;11.27;;;6.63;;
62861;SDS011;48953;53.110;5.592;2022-12-18T14:03:18;13.00;;;6.82;;
62861;SDS011;48953;53.110;5.592;2022-12-18T14:08:12;11.80;;;6.32;;
62861;SDS011;48953;53.110;5.592;2022-12-18T14:10:39;10.00;;;6.20;;
62861;SDS011;48953;53.110;5.592;2022-12-18T14:13:06;9.48;;;6.00;;
62861;SDS011;48953;53.110;5.592;2022-12-18T14:15:52;11.43;;;6.53;;
62861;SDS011;48953;53.110;5.592;2022-12-18T14:18:22;12.40;;;6.60;;
62861;SDS011;48953;53.110;5.592;2022-12-18T14:20:50;11.50;;;6.82;;
62861;SDS011;48953;53.110;5.592;2022-12-18T14:26:01;14.85;;;7.40;;
62861;SDS011;48953;53.110;5.592;2022-12-18T14:28:27;12.43;;;6.47;;
62861;SDS011;48953;53.110;5.592;2022-12-18T14:30:54;12.82;;;7.80;;
62861;SDS011;48953;53.110;5.592;2022-12-18T14:33:24;14.10;;;7.05;;
62861;SDS011;48953;53.110;5.592;2022-12-18T14:35:57;14.38;;;7.10;;
62861;SDS011;48953;53.110;5.592;2022-12-18T14:40:52;13.77;;;7.75;;
62861;SDS011;48953;53.110;5.592;2022-12-18T14:43:18;12.77;;;7.07;;
62861;SDS011;48953;53.110;5.592;2022-12-18T14:45:44;12.75;;;7.20;;
62861;SDS011;48953;53.110;5.592;2022-12-18T14:50:37;12.98;;;7.45;;
62861;SDS011;48953;53.110;5.592;2022-12-18T14:53:03;12.02;;;7.03;;
62861;SDS011;48953;53.110;5.592;2022-12-18T14:55:29;13.38;;;7.22;;
62861;SDS011;48953;53.110;5.592;2022-12-18T14:57:55;14.55;;;7.03;;
62861;SDS011;48953;53.110;5.592;2022-12-18T15:00:23;10.75;;;6.25;;
62861;SDS011;48953;53.110;5.592;2022-12-18T15:02:51;16.52;;;6.85;;
62861;SDS011;48953;53.110;5.592;2022-12-18T15:05:25;10.77;;;7.60;;
62861;SDS011;48953;53.110;5.592;2022-12-18T15:07:52;13.00;;;6.55;;
62861;SDS011;48953;53.110;5.592;2022-12-18T15:10:20;10.00;;;6.13;;
62861;SDS011;48953;53.110;5.592;2022-12-18T15:12:46;11.18;;;6.10;;
62861;SDS011;48953;53.110;5.592;2022-12-18T15:18:00;10.18;;;6.10;;
62861;SDS011;48953;53.110;5.592;2022-12-18T15:20:26;13.40;;;7.07;;
62861;SDS011;48953;53.110;5.592;2022-12-18T15:22:52;9.80;;;6.50;;
62861;SDS011;48953;53.110;5.592;2022-12-18T15:25:41;13.23;;;7.30;;
62861;SDS011;48953;53.110;5.592;2022-12-18T15:28:17;11.60;;;5.90;;
62861;SDS011;48953;53.110;5.592;2022-12-18T15:31:04;10.45;;;6.10;;
62861;SDS011;48953;53.110;5.592;2022-12-18T15:33:32;10.10;;;6.25;;
62861;SDS011;48953;53.110;5.592;2022-12-18T15:36:00;11.65;;;6.82;;
62861;SDS011;48953;53.110;5.592;2022-12-18T15:38:26;12.23;;;6.25;;
62861;SDS011;48953;53.110;5.592;2022-12-18T15:40:53;15.45;;;6.25;;
62861;SDS011;48953;53.110;5.592;2022-12-18T15:43:22;9.20;;;6.05;;
62861;SDS011;48953;53.110;5.592;2022-12-18T15:46:05;8.70;;;5.50;;
62861;SDS011;48953;53.110;5.592;2022-12-18T15:48:35;12.30;;;6.70;;
62861;SDS011;48953;53.110;5.592;2022-12-18T15:51:04;8.35;;;5.35;;
62861;SDS011;48953;53.110;5.592;2022-12-18T15:53:32;12.70;;;6.55;;
62861;SDS011;48953;53.110;5.592;2022-12-18T15:55:58;10.23;;;5.80;;
62861;SDS011;48953;53.110;5.592;2022-12-18T15:58:44;9.55;;;5.57;;
62861;SDS011;48953;53.110;5.592;2022-12-18T16:01:10;9.35;;;5.60;;
62861;SDS011;48953;53.110;5.592;2022-12-18T16:03:36;10.43;;;5.88;;
62861;SDS011;48953;53.110;5.592;2022-12-18T16:06:02;12.85;;;6.25;;
62861;SDS011;48953;53.110;5.592;2022-12-18T16:08:29;8.60;;;5.68;;
62861;SDS011;48953;53.110;5.592;2022-12-18T16:10:55;11.35;;;6.63;;
62861;SDS011;48953;53.110;5.592;2022-12-18T16:13:21;10.27;;;6.57;;
62861;SDS011;48953;53.110;5.592;2022-12-18T16:15:47;12.93;;;6.97;;
62861;SDS011;48953;53.110;5.592;2022-12-18T16:18:14;12.68;;;7.53;;
62861;SDS011;48953;53.110;5.592;2022-12-18T16:20:40;11.00;;;6.30;;